createdAt,value
2023-05-19T00:02:06.170Z,5.90
2023-05-19T00:04:33.549Z,9.05
2023-05-19T00:07:01.350Z,7.97
2023-05-19T00:09:28.432Z,8.33
2023-05-19T00:11:56.844Z,9.57
2023-05-19T00:14:23.981Z,6.65
2023-05-19T00:16:50.834Z,9.88
2023-05-19T00:19:17.778Z,7.65
2023-05-19T00:21:44.253Z,14.57
2023-05-19T00:24:10.621Z,8.98
2023-05-19T00:26:37.530Z,10.02
2023-05-19T00:29:07.021Z,10.15
2023-05-19T00:31:35.101Z,11.90
2023-05-19T00:34:01.623Z,12.77
2023-05-19T00:36:28.494Z,9.30
2023-05-19T00:38:54.940Z,6.93
2023-05-19T00:41:21.634Z,9.63
2023-05-19T00:43:48.128Z,8.30
2023-05-19T00:46:14.968Z,8.07
2023-05-19T00:48:44.957Z,9.82
2023-05-19T00:51:14.620Z,10.82
2023-05-19T00:53:41.579Z,13.23
2023-05-19T00:56:07.961Z,11.48
2023-05-19T00:58:35.910Z,12.88
2023-05-19T01:01:07.249Z,7.20
2023-05-19T01:03:35.764Z,12.38
2023-05-19T01:08:40.997Z,8.02
2023-05-19T01:11:08.490Z,11.57
2023-05-19T01:13:36.094Z,12.82
2023-05-19T01:16:13.100Z,10.30
2023-05-19T01:18:47.437Z,10.38
2023-05-19T01:21:51.718Z,11.48
2023-05-19T01:24:46.789Z,13.23
2023-05-19T01:27:29.853Z,10.68
2023-05-19T01:30:29.893Z,6.57
2023-05-19T01:33:02.477Z,9.88
2023-05-19T01:35:30.910Z,10.80
2023-05-19T01:38:00.480Z,8.90
2023-05-19T01:40:28.173Z,11.55
2023-05-19T01:42:57.809Z,10.30
2023-05-19T01:45:25.102Z,9.93
2023-05-19T01:47:58.855Z,10.15
2023-05-19T01:50:25.636Z,10.95
2023-05-19T01:52:53.284Z,9.95
2023-05-19T01:55:21.515Z,15.70
2023-05-19T01:57:57.202Z,13.95
2023-05-19T02:00:48.635Z,14.50
2023-05-19T02:03:23.681Z,11.18
2023-05-19T02:06:19.673Z,13.40
2023-05-19T02:09:16.656Z,9.40
2023-05-19T02:12:01.042Z,9.85
2023-05-19T02:14:36.429Z,12.57
2023-05-19T02:17:05.075Z,8.32
2023-05-19T02:19:35.331Z,7.30
2023-05-19T02:22:04.760Z,11.18
2023-05-19T02:24:31.238Z,9.27
2023-05-19T02:26:57.655Z,8.77
2023-05-19T02:29:24.055Z,8.93
2023-05-19T02:31:50.919Z,13.70
2023-05-19T02:34:17.693Z,12.05
2023-05-19T02:36:45.354Z,9.73
2023-05-19T02:39:12.871Z,8.87
2023-05-19T02:41:39.339Z,9.90
2023-05-19T02:44:06.053Z,17.38
2023-05-19T02:46:33.068Z,11.50
2023-05-19T02:48:59.759Z,10.27
2023-05-19T02:51:28.110Z,10.88
2023-05-19T02:53:55.516Z,9.82
2023-05-19T02:56:23.442Z,11.95
2023-05-19T02:58:49.876Z,9.75
2023-05-19T03:01:16.734Z,12.30
2023-05-19T03:03:45.409Z,10.63
2023-05-19T03:06:12.921Z,11.88
2023-05-19T03:08:42.315Z,14.55
2023-05-19T03:11:10.479Z,14.20
2023-05-19T03:13:39.023Z,13.57
2023-05-19T03:18:34.659Z,9.95
2023-05-19T03:21:01.145Z,10.75
2023-05-19T03:23:28.166Z,11.57
2023-05-19T03:25:56.322Z,11.07
2023-05-19T03:28:27.491Z,16.92
2023-05-19T03:30:53.998Z,13.95
2023-05-19T03:33:20.683Z,12.07
2023-05-19T03:35:48.190Z,14.07
2023-05-19T03:38:14.694Z,12.63
2023-05-19T03:40:41.957Z,19.77
2023-05-19T03:43:08.826Z,15.30
2023-05-19T03:45:35.470Z,9.73
2023-05-19T03:48:02.154Z,11.38
2023-05-19T03:50:29.076Z,12.60
2023-05-19T03:52:56.693Z,11.82
2023-05-19T03:55:23.314Z,14.47
2023-05-19T03:57:50.928Z,13.02
2023-05-19T04:00:18.053Z,14.33
2023-05-19T04:02:44.628Z,8.77
2023-05-19T04:05:11.429Z,12.50
2023-05-19T04:07:40.992Z,13.30
2023-05-19T04:10:08.034Z,11.68
2023-05-19T04:12:34.501Z,16.67
2023-05-19T04:15:00.924Z,16.30
2023-05-19T04:17:27.810Z,13.55
2023-05-19T04:19:54.389Z,14.02
2023-05-19T04:22:21.291Z,12.07
2023-05-19T04:24:48.625Z,12.85
2023-05-19T04:27:16.575Z,11.90
2023-05-19T04:29:43.642Z,15.05
2023-05-19T04:32:11.656Z,18.58
2023-05-19T04:34:46.712Z,16.08
2023-05-19T04:37:14.358Z,11.38
2023-05-19T04:39:45.367Z,10.70
2023-05-19T04:42:12.693Z,13.18
2023-05-19T04:44:40.410Z,14.77
2023-05-19T04:47:11.628Z,14.80
2023-05-19T04:49:41.275Z,14.57
2023-05-19T04:52:13.441Z,14.27
2023-05-19T04:54:40.130Z,12.82
2023-05-19T04:57:06.778Z,14.88
2023-05-19T04:59:33.794Z,18.27
2023-05-19T05:02:00.360Z,14.30
2023-05-19T05:04:26.770Z,12.02
2023-05-19T05:06:53.140Z,15.88
2023-05-19T05:09:21.487Z,11.00
2023-05-19T05:11:48.453Z,14.27
2023-05-19T05:14:16.552Z,15.25
2023-05-19T05:16:43.585Z,15.40
2023-05-19T05:19:11.179Z,14.25
2023-05-19T05:21:37.931Z,14.15
2023-05-19T05:24:04.969Z,16.52
2023-05-19T05:26:35.329Z,14.80
2023-05-19T05:29:02.915Z,13.10
2023-05-19T05:31:29.675Z,19.83
2023-05-19T05:33:56.445Z,13.05
2023-05-19T05:36:24.592Z,14.65
2023-05-19T05:38:53.104Z,14.43
2023-05-19T05:41:19.700Z,11.38
2023-05-19T05:43:46.107Z,15.05
2023-05-19T05:46:12.623Z,10.95
2023-05-19T05:48:39.711Z,12.80
2023-05-19T05:51:06.599Z,10.80
2023-05-19T05:53:39.917Z,16.35
2023-05-19T05:56:06.790Z,10.48
2023-05-19T05:58:35.800Z,15.20
2023-05-19T06:01:05.433Z,9.57
2023-05-19T06:03:33.477Z,13.32
2023-05-19T06:06:00.313Z,11.02
2023-05-19T06:08:28.237Z,12.30
2023-05-19T06:10:57.089Z,12.23
2023-05-19T06:13:24.155Z,9.63
2023-05-19T06:15:51.298Z,11.38
2023-05-19T06:18:18.088Z,14.15
2023-05-19T06:20:44.804Z,13.15
2023-05-19T06:23:11.360Z,11.80
2023-05-19T06:25:37.769Z,13.30
2023-05-19T06:28:04.346Z,12.32
2023-05-19T06:30:31.029Z,12.05
2023-05-19T06:32:57.601Z,11.70
2023-05-19T06:35:25.135Z,10.10
2023-05-19T06:37:53.915Z,14.32
2023-05-19T06:40:20.480Z,17.70
2023-05-19T06:42:46.819Z,14.88
2023-05-19T06:45:13.449Z,11.20
2023-05-19T06:47:42.372Z,9.32
2023-05-19T06:50:10.614Z,12.38
2023-05-19T06:52:38.957Z,7.75
2023-05-19T06:55:05.998Z,7.50
2023-05-19T06:57:33.233Z,12.60
2023-05-19T06:59:59.694Z,13.25
2023-05-19T07:02:26.262Z,11.32
2023-05-19T07:04:54.223Z,11.63
2023-05-19T07:07:20.790Z,9.90
2023-05-19T07:09:50.294Z,14.88
2023-05-19T07:12:16.708Z,10.90
2023-05-19T07:14:43.070Z,7.72
2023-05-19T07:17:10.845Z,8.10
2023-05-19T07:19:39.628Z,10.68
2023-05-19T07:22:06.193Z,11.40
2023-05-19T07:24:32.599Z,10.45
2023-05-19T07:26:59.023Z,11.02
2023-05-19T07:29:25.671Z,9.02
2023-05-19T07:31:54.287Z,13.27
2023-05-19T07:34:22.752Z,8.93
2023-05-19T07:36:49.142Z,9.88
2023-05-19T07:39:15.741Z,9.00
2023-05-19T07:41:42.256Z,9.05
2023-05-19T07:44:08.863Z,8.05
2023-05-19T07:46:37.803Z,9.43
2023-05-19T07:49:07.292Z,7.32
2023-05-19T07:51:33.728Z,8.50
2023-05-19T07:54:00.345Z,6.32
2023-05-19T07:56:27.324Z,12.98
2023-05-19T07:58:53.876Z,9.18
2023-05-19T08:01:20.324Z,13.27
2023-05-19T08:03:47.152Z,9.70
2023-05-19T08:06:13.642Z,11.57
2023-05-19T08:08:40.057Z,8.98
2023-05-19T08:11:06.918Z,7.15
2023-05-19T08:13:35.193Z,9.38
2023-05-19T08:16:03.885Z,6.85
2023-05-19T08:18:30.570Z,9.35
2023-05-19T08:20:57.865Z,6.60
2023-05-19T08:23:25.663Z,7.28
2023-05-19T08:25:52.208Z,6.20
2023-05-19T08:28:19.121Z,8.38
2023-05-19T08:30:45.554Z,8.93
2023-05-19T08:33:12.152Z,7.20
2023-05-19T08:35:38.641Z,6.57
2023-05-19T08:38:05.340Z,8.60
2023-05-19T08:40:35.763Z,4.15
2023-05-19T08:43:02.538Z,7.95
2023-05-19T08:45:29.990Z,7.13
2023-05-19T08:47:58.070Z,9.23
2023-05-19T08:50:32.246Z,9.63
2023-05-19T08:53:33.789Z,7.13
2023-05-19T08:56:17.690Z,14.55
2023-05-19T08:58:46.176Z,51.65
2023-05-19T09:03:42.985Z,5.80
2023-05-19T09:06:12.534Z,6.78
2023-05-19T09:08:42.118Z,5.20
2023-05-19T09:11:12.113Z,7.32
2023-05-19T09:13:41.041Z,6.30
2023-05-19T09:16:08.181Z,9.63
2023-05-19T09:18:38.358Z,5.07
2023-05-19T09:21:09.275Z,7.45
2023-05-19T09:23:36.169Z,6.25
2023-05-19T09:26:09.015Z,6.53
2023-05-19T09:28:36.751Z,8.93
2023-05-19T09:31:11.452Z,7.32
2023-05-19T09:33:40.357Z,7.65
2023-05-19T09:36:08.704Z,8.30
2023-05-19T09:38:36.840Z,10.90
2023-05-19T09:41:04.868Z,6.20
2023-05-19T09:43:36.569Z,7.18
2023-05-19T09:46:14.321Z,4.20
2023-05-19T09:48:42.600Z,16.35
2023-05-19T09:51:12.201Z,5.97
2023-05-19T09:53:39.126Z,11.23
2023-05-19T09:56:08.668Z,8.88
2023-05-19T09:58:37.128Z,7.53
2023-05-19T10:01:04.977Z,10.43
2023-05-19T10:03:35.223Z,6.38
2023-05-19T10:06:02.879Z,4.95
2023-05-19T10:08:31.000Z,4.70
2023-05-19T10:10:57.985Z,9.88
2023-05-19T10:13:25.651Z,7.82
2023-05-19T10:15:58.943Z,7.80
2023-05-19T10:18:28.358Z,5.85
2023-05-19T10:20:58.194Z,6.35
2023-05-19T10:23:25.459Z,8.45
2023-05-19T10:25:56.602Z,9.27
2023-05-19T10:28:32.058Z,6.82
2023-05-19T10:31:04.008Z,6.00
2023-05-19T10:33:57.230Z,12.23
2023-05-19T10:36:48.455Z,9.55
2023-05-19T10:39:25.538Z,6.57
2023-05-19T10:42:05.248Z,13.88
2023-05-19T10:44:39.606Z,9.30
2023-05-19T10:47:12.407Z,6.30
2023-05-19T10:49:39.710Z,7.70
2023-05-19T10:52:22.487Z,8.18
2023-05-19T10:54:51.188Z,9.77
2023-05-19T10:57:20.066Z,5.00
2023-05-19T10:59:47.216Z,11.77
2023-05-19T11:02:56.504Z,8.48
2023-05-19T11:05:29.293Z,9.73
2023-05-19T11:08:06.192Z,6.10
2023-05-19T11:10:32.971Z,6.90
2023-05-19T11:12:59.659Z,8.15
2023-05-19T11:15:36.638Z,11.73
2023-05-19T11:18:04.887Z,5.35
2023-05-19T11:20:35.427Z,9.00
2023-05-19T11:23:11.745Z,7.57
2023-05-19T11:25:44.567Z,12.15
2023-05-19T11:28:14.712Z,4.28
2023-05-19T11:30:44.411Z,11.13
2023-05-19T11:33:11.203Z,4.13
2023-05-19T11:35:38.662Z,6.97
2023-05-19T11:38:06.907Z,8.47
2023-05-19T11:40:33.752Z,5.78
2023-05-19T11:43:02.041Z,5.35
2023-05-19T11:45:31.662Z,4.80
2023-05-19T11:48:02.410Z,5.15
2023-05-19T11:50:31.189Z,4.72
2023-05-19T11:53:02.380Z,4.88
2023-05-19T11:55:29.610Z,4.38
2023-05-19T11:58:05.610Z,7.03
2023-05-19T12:00:40.329Z,6.95
2023-05-19T12:03:08.378Z,8.63
2023-05-19T12:05:42.852Z,3.35
2023-05-19T12:08:10.601Z,5.55
2023-05-19T12:10:38.789Z,4.88
2023-05-19T12:13:09.141Z,7.13
2023-05-19T12:15:36.930Z,4.40
2023-05-19T12:18:03.950Z,4.07
2023-05-19T12:20:32.501Z,5.30
2023-05-19T12:25:26.917Z,6.95
2023-05-19T12:27:58.659Z,5.38
2023-05-19T12:30:28.826Z,5.88
2023-05-19T12:32:57.970Z,4.10
2023-05-19T12:35:29.551Z,4.47
2023-05-19T12:37:56.139Z,4.95
2023-05-19T12:40:24.017Z,4.90
2023-05-19T12:42:54.855Z,4.85
2023-05-19T12:45:23.013Z,5.68
2023-05-19T12:47:50.482Z,5.43
2023-05-19T12:50:17.128Z,5.18
2023-05-19T12:52:46.506Z,4.45
2023-05-19T12:55:14.552Z,3.97
2023-05-19T12:57:44.310Z,9.50
2023-05-19T13:00:17.797Z,4.88
2023-05-19T13:03:07.470Z,4.45
2023-05-19T13:05:39.561Z,4.13
2023-05-19T13:08:06.827Z,4.25
2023-05-19T13:10:34.869Z,3.03
2023-05-19T13:13:02.226Z,6.35
2023-05-19T13:15:37.707Z,9.75
2023-05-19T13:18:08.586Z,7.60
2023-05-19T13:20:36.473Z,5.88
2023-05-19T13:23:06.291Z,5.70
2023-05-19T13:25:34.327Z,8.00
2023-05-19T13:28:03.886Z,4.75
2023-05-19T13:30:32.055Z,8.20
2023-05-19T13:32:59.831Z,8.82
2023-05-19T13:35:26.349Z,4.03
2023-05-19T13:37:52.872Z,5.22
2023-05-19T13:40:19.601Z,3.08
2023-05-19T13:42:46.222Z,8.48
2023-05-19T13:45:12.902Z,6.65
2023-05-19T13:47:40.096Z,8.90
2023-05-19T13:50:07.541Z,5.97
2023-05-19T13:52:35.136Z,5.75
2023-05-19T13:55:01.831Z,6.23
2023-05-19T13:57:28.508Z,7.32
2023-05-19T14:00:02.512Z,7.97
2023-05-19T14:02:30.516Z,4.72
2023-05-19T14:04:58.049Z,9.07
2023-05-19T14:07:25.461Z,4.72
2023-05-19T14:09:52.582Z,6.77
2023-05-19T14:12:20.142Z,3.00
2023-05-19T14:14:49.036Z,4.53
2023-05-19T14:17:15.920Z,6.63
2023-05-19T14:19:42.417Z,6.90
2023-05-19T14:22:08.856Z,3.15
2023-05-19T14:24:35.414Z,4.43
2023-05-19T14:27:02.708Z,7.45
2023-05-19T14:29:31.247Z,3.58
2023-05-19T14:34:26.926Z,4.80
2023-05-19T14:36:53.641Z,3.53
2023-05-19T14:39:20.256Z,4.68
2023-05-19T14:41:47.032Z,4.32
2023-05-19T14:44:14.145Z,4.82
2023-05-19T14:46:42.213Z,4.88
2023-05-19T14:49:08.658Z,4.18
2023-05-19T14:51:35.071Z,5.88
2023-05-19T14:54:02.227Z,2.92
2023-05-19T14:56:28.950Z,4.32
2023-05-19T14:58:55.395Z,4.00
2023-05-19T15:01:21.928Z,4.18
2023-05-19T15:03:48.652Z,6.90
2023-05-19T15:06:15.124Z,4.32
2023-05-19T15:08:41.649Z,4.97
2023-05-19T15:11:08.228Z,4.90
2023-05-19T15:13:35.224Z,6.15
2023-05-19T15:16:16.294Z,3.90
2023-05-19T15:18:43.754Z,4.22
2023-05-19T15:21:10.345Z,4.30
2023-05-19T15:23:37.074Z,4.80
2023-05-19T15:26:03.809Z,7.38
2023-05-19T15:28:30.477Z,14.07
2023-05-19T15:30:56.957Z,5.18
2023-05-19T15:33:23.621Z,4.82
2023-05-19T15:35:53.089Z,4.18
2023-05-19T15:38:20.469Z,4.03
2023-05-19T15:40:47.098Z,4.05
2023-05-19T15:43:14.062Z,8.57
2023-05-19T15:45:40.963Z,3.75
2023-05-19T15:48:07.842Z,4.95
2023-05-19T15:50:34.732Z,3.72
2023-05-19T15:53:01.805Z,4.72
2023-05-19T15:55:28.297Z,4.57
2023-05-19T15:57:54.720Z,4.03
2023-05-19T16:00:21.306Z,5.20
2023-05-19T16:02:47.958Z,6.35
2023-05-19T16:05:15.559Z,8.98
2023-05-19T16:07:42.297Z,11.15
2023-05-19T16:10:09.534Z,4.72
2023-05-19T16:12:37.573Z,3.08
2023-05-19T16:15:04.411Z,3.60
2023-05-19T16:17:30.994Z,6.78
2023-05-19T16:19:57.753Z,4.05
2023-05-19T16:22:24.912Z,3.92
2023-05-19T16:24:52.205Z,6.72
2023-05-19T16:27:21.613Z,4.40
2023-05-19T16:29:48.481Z,4.05
2023-05-19T16:32:15.313Z,4.30
2023-05-19T16:34:44.027Z,4.88
2023-05-19T16:37:10.665Z,11.15
2023-05-19T16:39:37.268Z,3.15
2023-05-19T16:42:04.753Z,4.28
2023-05-19T16:44:31.421Z,7.70
2023-05-19T16:46:58.354Z,5.63
2023-05-19T16:49:25.921Z,5.82
2023-05-19T16:51:53.109Z,4.70
2023-05-19T16:54:20.215Z,3.63
2023-05-19T16:56:46.710Z,5.13
2023-05-19T16:59:14.007Z,3.40
2023-05-19T17:01:42.085Z,3.78
2023-05-19T17:04:08.815Z,2.92
2023-05-19T17:06:36.143Z,3.63
2023-05-19T17:09:02.858Z,5.07
2023-05-19T17:11:29.562Z,4.35
2023-05-19T17:13:55.999Z,3.25
2023-05-19T17:16:23.566Z,3.75
2023-05-19T17:18:51.589Z,8.10
2023-05-19T17:21:18.108Z,3.97
2023-05-19T17:23:46.304Z,5.75
2023-05-19T17:26:12.787Z,4.00
2023-05-19T17:28:39.228Z,2.72
2023-05-19T17:31:12.518Z,2.65
2023-05-19T17:33:39.742Z,4.10
2023-05-19T17:36:07.149Z,5.53
2023-05-19T17:38:35.556Z,4.40
2023-05-19T17:41:02.822Z,3.72
2023-05-19T17:43:29.353Z,5.20
2023-05-19T17:45:58.779Z,8.63
2023-05-19T17:48:26.741Z,5.10
2023-05-19T17:50:54.696Z,7.43
2023-05-19T17:53:21.606Z,4.00
2023-05-19T17:55:51.736Z,3.05
2023-05-19T17:58:26.406Z,2.45
2023-05-19T18:00:54.284Z,4.28
2023-05-19T18:03:24.107Z,3.00
2023-05-19T18:05:53.771Z,1.85
2023-05-19T18:08:20.589Z,3.17
2023-05-19T18:10:48.549Z,3.20
2023-05-19T18:13:15.081Z,4.25
2023-05-19T18:15:41.841Z,5.82
2023-05-19T18:18:10.415Z,4.65
2023-05-19T18:20:38.915Z,6.50
2023-05-19T18:23:05.950Z,2.22
2023-05-19T18:25:32.587Z,2.38
2023-05-19T18:27:59.038Z,3.33
2023-05-19T18:30:25.802Z,3.67
2023-05-19T18:32:52.206Z,6.70
2023-05-19T18:35:20.737Z,2.97
2023-05-19T18:40:14.056Z,2.50
2023-05-19T18:42:40.603Z,2.50
2023-05-19T18:45:08.048Z,4.47
2023-05-19T18:47:34.504Z,5.35
2023-05-19T18:50:01.828Z,4.70
2023-05-19T18:52:29.274Z,2.90
2023-05-19T18:54:55.934Z,5.28
2023-05-19T18:57:23.040Z,5.07
2023-05-19T18:59:49.716Z,3.45
2023-05-19T19:02:16.201Z,3.05
2023-05-19T19:04:42.700Z,2.47
2023-05-19T19:07:09.345Z,2.28
2023-05-19T19:09:35.728Z,3.40
2023-05-19T19:12:02.716Z,4.20
2023-05-19T19:14:29.265Z,2.65
2023-05-19T19:16:56.304Z,4.80
2023-05-19T19:19:24.296Z,4.00
2023-05-19T19:21:50.992Z,5.50
2023-05-19T19:24:17.931Z,3.03
2023-05-19T19:26:46.541Z,2.22
2023-05-19T19:29:15.505Z,5.30
2023-05-19T19:31:42.146Z,2.25
2023-05-19T19:34:09.677Z,3.75
2023-05-19T19:36:37.408Z,4.57
2023-05-19T19:39:04.030Z,3.80
2023-05-19T19:41:31.054Z,4.38
2023-05-19T19:43:59.928Z,5.93
2023-05-19T19:46:26.412Z,3.40
2023-05-19T19:48:56.472Z,5.43
2023-05-19T19:51:24.566Z,4.90
2023-05-19T19:53:50.929Z,4.97
2023-05-19T19:56:18.489Z,6.35
2023-05-19T19:58:44.970Z,4.68
2023-05-19T20:01:11.446Z,6.13
2023-05-19T20:03:38.139Z,4.40
2023-05-19T20:06:04.679Z,4.40
2023-05-19T20:08:31.078Z,13.35
2023-05-19T20:10:59.217Z,3.28
2023-05-19T20:13:25.877Z,3.17
2023-05-19T20:15:52.850Z,2.33
2023-05-19T20:18:20.519Z,5.28
2023-05-19T20:20:46.962Z,4.57
2023-05-19T20:23:16.126Z,3.90
2023-05-19T20:25:57.845Z,4.63
2023-05-19T20:28:29.792Z,4.07
2023-05-19T20:30:56.485Z,5.65
2023-05-19T20:33:22.965Z,5.68
2023-05-19T20:35:50.728Z,4.70
2023-05-19T20:38:18.559Z,2.88
2023-05-19T20:40:45.284Z,5.35
2023-05-19T20:43:12.206Z,4.10
2023-05-19T20:45:38.714Z,4.22
2023-05-19T20:48:05.938Z,6.80
2023-05-19T20:50:32.853Z,3.55
2023-05-19T20:53:00.684Z,3.35
2023-05-19T20:55:27.636Z,3.33
2023-05-19T20:57:55.147Z,3.03
2023-05-19T21:00:21.829Z,4.13
2023-05-19T21:02:48.484Z,3.40
2023-05-19T21:05:14.982Z,4.63
2023-05-19T21:07:41.391Z,4.28
2023-05-19T21:10:08.507Z,4.10
2023-05-19T21:12:35.500Z,2.95
2023-05-19T21:15:02.070Z,5.38
2023-05-19T21:17:29.864Z,4.38
2023-05-19T21:19:59.478Z,4.20
2023-05-19T21:22:27.225Z,3.85
2023-05-19T21:24:54.562Z,3.93
2023-05-19T21:27:22.744Z,3.28
2023-05-19T21:29:53.692Z,5.72
2023-05-19T21:32:23.286Z,4.07
2023-05-19T21:34:49.730Z,4.95
2023-05-19T21:37:19.881Z,4.28
2023-05-19T21:39:46.625Z,3.70
2023-05-19T21:42:14.388Z,4.47
2023-05-19T21:44:40.881Z,3.42
2023-05-19T21:47:07.340Z,3.30
2023-05-19T21:49:33.819Z,8.07
2023-05-19T21:52:02.052Z,4.68
2023-05-19T21:54:28.577Z,3.30
2023-05-19T21:56:55.021Z,3.42
2023-05-19T21:59:23.381Z,5.85
2023-05-19T22:01:50.267Z,5.10
2023-05-19T22:04:18.499Z,4.25
2023-05-19T22:06:45.447Z,3.38
2023-05-19T22:09:11.897Z,4.65
2023-05-19T22:11:38.966Z,3.70
2023-05-19T22:14:05.418Z,3.55
2023-05-19T22:16:33.069Z,4.07
2023-05-19T22:18:59.963Z,5.60
2023-05-19T22:21:28.485Z,6.65
2023-05-19T22:23:55.671Z,6.70
2023-05-19T22:26:22.044Z,3.53
2023-05-19T22:28:50.641Z,6.65
2023-05-19T22:31:18.098Z,5.93
2023-05-19T22:33:44.789Z,3.53
2023-05-19T22:36:11.370Z,5.10
2023-05-19T22:38:40.753Z,3.95
2023-05-19T22:41:08.811Z,4.85
2023-05-19T22:43:35.571Z,5.38
2023-05-19T22:46:02.263Z,8.60
2023-05-19T22:48:28.970Z,8.10
2023-05-19T22:50:55.776Z,3.55
2023-05-19T22:53:22.253Z,4.75
2023-05-19T22:55:48.677Z,3.53
2023-05-19T22:58:15.264Z,4.10
2023-05-19T23:00:42.686Z,3.03
2023-05-19T23:03:09.304Z,5.40
2023-05-19T23:05:37.873Z,6.03
2023-05-19T23:10:30.870Z,5.18
2023-05-19T23:12:57.584Z,8.10
2023-05-19T23:15:24.228Z,8.43
2023-05-19T23:17:51.045Z,6.05
2023-05-19T23:20:17.692Z,6.07
2023-05-19T23:22:44.401Z,6.85
2023-05-19T23:25:12.099Z,9.05
2023-05-19T23:27:38.794Z,6.90
2023-05-19T23:30:07.016Z,5.53
2023-05-19T23:32:33.724Z,7.47
2023-05-19T23:35:19.927Z,7.90
2023-05-19T23:37:48.120Z,5.65
2023-05-19T23:40:16.166Z,4.78
2023-05-19T23:42:44.517Z,6.80
2023-05-19T23:45:11.458Z,6.95
2023-05-19T23:47:38.007Z,4.38
2023-05-19T23:50:05.006Z,6.05
2023-05-19T23:52:33.716Z,3.85
2023-05-19T23:55:00.287Z,6.50
2023-05-19T23:57:28.205Z,6.25
2023-05-19T23:59:54.624Z,6.20
